Meteo Giornale » Osservazioni meteo Stati Uniti (USA) » Arlington
ore: 15:53 - Osservazioni Meteo Arlington
Lat. 32° 39' N Lon. 97° 5' W Alt. 192 metri s.l.m.
38 °C
Poco Nuvoloso
Temp. 24 Ore
26 °C
38 °C
Sud-Est
25.9 Km/h
Dew point 16 °C
Umidità 27 %
Visibilità 10 Km
Il sole sorge alle ore 07:02
Il sole tramonta alle ore 19:54
| Data e Ora | Cielo e Fenomeni | T °C | DP °C | Um. % | Pres. hPa | Vis. km | Vento km/h | |
|---|---|---|---|---|---|---|---|---|
| Oggi h: 15:53 | Poco Nuvoloso | 38 | 16 | 27 | 1014 | 10 | SE 25.9 | |
| Oggi h: 14:53 | Poco Nuvoloso | 37 | 15 | 27 | 1015 | 10 | SE 16.7 | |
| Oggi h: 13:53 | Molto Nuvoloso | 37 | 17 | 30 | 1016 | 10 | E/SE 18.5 | |
| Oggi h: 12:53 | Sereno | 36 | 18 | 34 | 1017 | 10 | S/SE 18.5 | |
| Oggi h: 11:53 | Sereno | 35 | 17 | 34 | 1017 | 10 | S/SE 13 | |
| Oggi h: 10:56 | Sereno | 33 | 18 | 41 | 1017 | 10 | S/SE 13 | |
| Oggi h: 10:53 | Sereno | 33 | 18 | 41 | 1017 | 10 | N 0 | |
| Oggi h: 09:53 | Sereno | 31 | 21 | 55 | 1017 | 10 | N 9.3 | |
| Oggi h: 08:53 | Sereno | 28 | 21 | 65 | 1017 | 10 | S 11.1 | |
| Oggi h: 07:53 | Sereno | 27 | 21 | 69 | 1016 | 10 | S/SE 13 | |
| Oggi h: 06:53 | Sereno | 26 | 20 | 69 | 1015 | 10 | S/SE 9.3 | |
| Oggi h: 05:53 | Sereno | 26 | 19 | 65 | 1015 | 10 | S/SE 9.3 | |
| Oggi h: 04:53 | Sereno | 27 | 19 | 61 | 1015 | 10 | S/SE 9.3 | |
| Oggi h: 03:53 | Molto Nuvoloso | 28 | 18 | 54 | 1015 | 10 | S/SE 9.3 | |
| Oggi h: 02:53 | Sereno | 28 | 18 | 54 | 1014 | 10 | S 9.3 | |
| Oggi h: 01:53 | Sereno | 29 | 17 | 48 | 1014 | 10 | S 14.8 | |
| Oggi h: 00:53 | Sereno | 28 | 17 | 51 | 1015 | 10 | S/SE 7.4 | |
| Ieri h: 23:53 | Sereno | 29 | 17 | 48 | 1014 | 10 | N 5.5 | |
| Ieri h: 22:53 | Sereno | 31 | 17 | 43 | 1014 | 10 | SE 7.4 | |
| Ieri h: 21:53 | Poco Nuvoloso | 32 | 17 | 40 | 1014 | 10 | SE 9.3 | |
| Ieri h: 20:53 | Sereno | 33 | 17 | 38 | 1012 | 10 | N 5.5 | |
| Ieri h: 19:53 | Poco Nuvoloso | 36 | 16 | 30 | 1012 | 10 | SE 16.7 | |
| Ieri h: 18:53 | Sereno | 37 | 14 | 25 | 1012 | 10 | SE 16.7 | |
| Ieri h: 17:53 | Nuvoloso | 38 | 15 | 25 | 1012 | 10 | SE 18.5 | |
| Ieri h: 16:53 | Poco Nuvoloso | 38 | 14 | 24 | 1012 | 10 | E/SE 25.9 | |



